»·PEaware :: N212L KSAN-KBUR

N212L :: KSAN-KBUR

FLIGHT INFORMATION

Flight Status: Arrived
Operator: Privately registered:
United States
More flights under this callsign
Pilot: Daniel L. (14573)
Aircraft: PIPER PA-28 CHEROKEE ARCHER
(PA28)
More flights by this aircraft type
Origin: KSAN San Diego Intl-Lindbergh
United States
Destination: KBUR Bob Hope-Burbank
United States
More flights between these airports :: More routes between these airports
Route: +OCN V23 POPPR SMO125R SMO SMO311R SILEX
File this flight plan on PilotEdge
Remarks:
Altitude:
(Current/Filed)
6,000ft
Speed:
(Current/Filed)
140kts
Departed: 27-Dec-17 12:04 PM
Arrived: 27-Dec-17 01:10 PM
Distance/Time
Traveled:
106nm/1:06
Distance/Time
To Go:
Arrived

Flight Plot

Page will automatically refresh every two minutes.


Map Options




Map Legend


Flown Route
Filed Route
Departure Airport
Arrival Airport
Navaid (VOR, NDB)
Fix

Horizontal Profiles

Position Reports

Time Latitude Longitude Heading Altitude Ground
Speed
27-Dec-17 11:01 32.732090 -117.176562 193 28ft 0kts
27-Dec-17 11:02 32.732090 -117.176562 193 28ft 0kts
27-Dec-17 11:03 32.732090 -117.176562 193 28ft 0kts
27-Dec-17 11:04 32.732090 -117.176562 193 28ft 0kts
27-Dec-17 11:05 32.732090 -117.176562 193 28ft 0kts
27-Dec-17 11:06 32.732090 -117.176562 193 28ft 0kts
27-Dec-17 11:07 32.732090 -117.176562 193 28ft 0kts
27-Dec-17 11:08 32.732090 -117.176562 193 28ft 0kts
27-Dec-17 11:09 32.732090 -117.176562 193 28ft 0kts
27-Dec-17 11:10 32.732090 -117.176562 193 28ft 0kts
27-Dec-17 11:11 32.732090 -117.176562 193 28ft 0kts
27-Dec-17 11:12 32.732090 -117.176562 193 28ft 0kts
27-Dec-17 11:13 32.732090 -117.176562 193 28ft 0kts
27-Dec-17 11:14 32.732090 -117.176562 193 28ft 0kts
27-Dec-17 11:15 32.732090 -117.176562 193 28ft 0kts
27-Dec-17 11:16 32.732090 -117.176562 193 28ft 0kts
27-Dec-17 11:17 32.732090 -117.176562 193 28ft 0kts
27-Dec-17 11:18 32.732090 -117.176562 193 28ft 0kts
27-Dec-17 11:19 32.732090 -117.176562 193 28ft 0kts
27-Dec-17 11:20 32.732090 -117.176562 193 28ft 0kts
27-Dec-17 11:21 32.732090 -117.176562 193 28ft 0kts
27-Dec-17 11:22 32.732090 -117.176562 193 28ft 0kts
27-Dec-17 11:23 32.732090 -117.176562 193 28ft 0kts
27-Dec-17 11:24 32.732090 -117.176562 193 28ft 0kts
27-Dec-17 11:25 32.732090 -117.176562 193 28ft 0kts
27-Dec-17 11:26 32.732090 -117.176562 193 28ft 0kts
27-Dec-17 11:27 32.732090 -117.176562 193 28ft 0kts
27-Dec-17 11:28 32.732090 -117.176562 193 28ft 0kts
27-Dec-17 11:29 32.732090 -117.176562 193 28ft 0kts
27-Dec-17 11:30 32.732090 -117.176562 193 28ft 0kts
27-Dec-17 11:31 32.732090 -117.176562 193 28ft 0kts
27-Dec-17 11:32 32.732090 -117.176562 193 28ft 0kts
27-Dec-17 11:33 32.732090 -117.176562 193 28ft 0kts
27-Dec-17 11:34 32.732090 -117.176562 193 28ft 0kts
27-Dec-17 11:35 32.732090 -117.176562 193 28ft 0kts
27-Dec-17 11:36 32.732090 -117.176562 193 28ft 0kts
27-Dec-17 11:37 32.732090 -117.176562 193 28ft 0kts
27-Dec-17 11:38 32.732090 -117.176562 193 28ft 0kts
27-Dec-17 11:39 32.732090 -117.176562 193 28ft 0kts
27-Dec-17 11:40 32.732090 -117.176562 193 28ft 0kts
27-Dec-17 11:41 32.732090 -117.176562 193 28ft 0kts
27-Dec-17 11:42 32.732090 -117.176562 193 28ft 0kts
27-Dec-17 11:43 32.732090 -117.176562 193 28ft 0kts
27-Dec-17 11:44 32.732090 -117.176562 193 28ft 0kts
27-Dec-17 11:45 32.732090 -117.176562 193 28ft 0kts
27-Dec-17 11:46 32.732088 -117.176562 193 28ft 0kts
27-Dec-17 11:47 32.732088 -117.176562 193 28ft 0kts
27-Dec-17 11:48 32.732088 -117.176562 193 28ft 0kts
27-Dec-17 11:49 32.732088 -117.176562 193 28ft 0kts
27-Dec-17 11:50 32.732088 -117.176562 193 28ft 0kts
27-Dec-17 11:51 32.732088 -117.176562 193 28ft 0kts
27-Dec-17 11:52 32.732088 -117.176562 193 28ft 0kts
27-Dec-17 11:53 32.732088 -117.176562 193 28ft 0kts
27-Dec-17 11:54 32.732088 -117.176562 193 28ft 0kts
27-Dec-17 11:55 32.732088 -117.176562 193 28ft 0kts
27-Dec-17 11:56 32.732088 -117.176562 193 28ft 0kts
27-Dec-17 11:57 32.732088 -117.176562 193 28ft 0kts
27-Dec-17 11:58 32.732088 -117.176562 193 28ft 0kts
27-Dec-17 11:59 32.732088 -117.176562 193 28ft 0kts
27-Dec-17 12:00 32.732088 -117.176562 193 28ft 0kts
27-Dec-17 12:01 32.732088 -117.176562 193 28ft 0kts
27-Dec-17 12:02 32.732088 -117.176562 193 28ft 0kts
27-Dec-17 12:03 32.732088 -117.176562 193 28ft 0kts
27-Dec-17 12:04 32.732088 -117.176562 193 28ft 0kts
27-Dec-17 12:05 32.732088 -117.176562 193 28ft 0kts
27-Dec-17 12:06 32.732088 -117.176562 193 28ft 0kts
27-Dec-17 12:07 32.732028 -117.176579 190 27ft 3kts
27-Dec-17 12:08 32.730998 -117.175579 135 26ft 0kts
27-Dec-17 12:09 32.730966 -117.175542 137 26ft 0kts
27-Dec-17 12:10 32.731079 -117.179448 285 16ft 73kts
27-Dec-17 12:11 32.741728 -117.203863 320 842ft 86kts
27-Dec-17 12:12 32.760407 -117.222503 321 1685ft 88kts
27-Dec-17 12:13 32.781329 -117.242315 321 2038ft 115kts
27-Dec-17 12:14 32.808685 -117.268099 321 2027ft 129kts
27-Dec-17 12:15 32.837052 -117.294884 321 2024ft 130kts
27-Dec-17 12:16 32.862730 -117.319347 321 2252ft 115kts
27-Dec-17 12:17 32.885430 -117.341189 321 2924ft 101kts
27-Dec-17 12:18 32.912588 -117.348156 351 3492ft 100kts
27-Dec-17 12:19 32.940698 -117.353284 351 4111ft 103kts
27-Dec-17 12:20 32.968269 -117.357913 351 4708ft 102kts
27-Dec-17 12:21 32.996730 -117.362663 351 5300ft 104kts
27-Dec-17 12:22 33.025569 -117.367457 351 5848ft 105kts
27-Dec-17 12:23 33.055924 -117.372542 351 6031ft 120kts
27-Dec-17 12:24 33.087149 -117.377890 351 6028ft 126kts
27-Dec-17 12:25 33.103483 -117.380743 351 6028ft 126kts
27-Dec-17 12:26 33.133730 -117.387333 350 6028ft 127kts
27-Dec-17 12:27 33.167817 -117.394832 350 6028ft 127kts
27-Dec-17 12:28 33.202478 -117.402409 350 6028ft 126kts
27-Dec-17 12:29 33.236770 -117.411170 325 6022ft 127kts
27-Dec-17 12:30 33.262244 -117.440554 316 6028ft 127kts
27-Dec-17 12:31 33.286942 -117.469785 316 6028ft 126kts
27-Dec-17 12:32 33.309903 -117.496777 316 6028ft 126kts
27-Dec-17 12:33 33.334927 -117.526061 316 6028ft 125kts
27-Dec-17 12:34 33.359689 -117.555401 310 6027ft 125kts
27-Dec-17 12:35 33.381046 -117.587141 309 6028ft 125kts
27-Dec-17 12:36 33.402595 -117.619501 309 6028ft 124kts
27-Dec-17 12:37 33.423973 -117.651689 308 6029ft 125kts
27-Dec-17 12:38 33.445022 -117.683379 309 6031ft 125kts
27-Dec-17 12:39 33.473029 -117.706645 330 6057ft 124kts
27-Dec-17 12:40 33.496660 -117.736592 308 6061ft 128kts
27-Dec-17 12:41 33.518524 -117.770790 308 6026ft 128kts
27-Dec-17 12:42 33.540133 -117.804901 308 6028ft 128kts
27-Dec-17 12:43 33.561619 -117.838945 308 6028ft 128kts
27-Dec-17 12:44 33.583097 -117.873042 308 6028ft 128kts
27-Dec-17 12:45 33.604697 -117.907371 308 6028ft 128kts
27-Dec-17 12:46 33.626162 -117.941572 307 6028ft 128kts
27-Dec-17 12:47 33.647715 -117.975863 308 6028ft 128kts
27-Dec-17 12:48 33.669283 -118.010240 308 6028ft 128kts
27-Dec-17 12:49 33.690818 -118.044583 308 6028ft 128kts
27-Dec-17 12:50 33.712309 -118.078883 308 6028ft 128kts
27-Dec-17 12:51 33.733794 -118.113204 308 6029ft 128kts
27-Dec-17 12:52 33.755207 -118.147552 307 6030ft 128kts
27-Dec-17 12:53 33.775551 -118.181449 292 6028ft 129kts
27-Dec-17 12:54 33.793692 -118.217739 308 6032ft 128kts
27-Dec-17 12:55 33.815201 -118.251528 306 5706ft 126kts
27-Dec-17 12:56 33.838283 -118.281192 320 5246ft 126kts
27-Dec-17 12:57 33.864502 -118.307684 320 4689ft 125kts
27-Dec-17 12:58 33.890984 -118.334568 320 4145ft 125kts
27-Dec-17 12:59 33.916789 -118.360998 319 3850ft 113kts
27-Dec-17 13:00 33.940116 -118.384978 320 4021ft 124kts
27-Dec-17 13:01 33.962398 -118.407823 319 4018ft 127kts
27-Dec-17 13:02 33.989348 -118.435407 320 4016ft 127kts
27-Dec-17 13:03 34.014542 -118.464876 312 4014ft 127kts
27-Dec-17 13:04 34.038267 -118.496727 312 4013ft 127kts
27-Dec-17 13:05 34.062034 -118.528625 312 4013ft 127kts
27-Dec-17 13:06 34.085645 -118.560324 312 4022ft 127kts
27-Dec-17 13:07 34.117719 -118.571558 351 4024ft 127kts
27-Dec-17 13:08 34.151849 -118.577821 352 4026ft 127kts
27-Dec-17 13:09 34.180240 -118.560942 44 4114ft 123kts
27-Dec-17 13:10 34.198946 -118.527064 80 4132ft 128kts
27-Dec-17 13:11 34.200104 -118.484683 89 3789ft 128kts
27-Dec-17 13:12 34.199533 -118.448297 90 3049ft 94kts
27-Dec-17 13:13 34.198868 -118.417158 90 2302ft 92kts
27-Dec-17 13:14 34.198223 -118.388130 93 1351ft 73kts
27-Dec-17 13:15 34.197875 -118.365621 93 733ft 55kts
27-Dec-17 13:16 34.198547 -118.360398 352 733ft 0kts
27-Dec-17 13:17 34.198646 -118.360407 359 733ft 4kts
27-Dec-17 13:18 34.200175 -118.358286 345 733ft 12kts
27-Dec-17 13:19 34.200370 -118.358731 250 733ft 0kts
27-Dec-17 13:20 34.200370 -118.358731 250 733ft 0kts
27-Dec-17 13:21 34.200370 -118.358731 250 733ft 0kts
27-Dec-17 13:22 34.200370 -118.358731 250 733ft 0kts
27-Dec-17 13:23 34.200370 -118.358731 250 733ft 0kts
27-Dec-17 13:24 34.200370 -118.358731 250 733ft 0kts

Navigation Log

Ident Type
1. KSAN Airport
2. OCN Navaid
3. KELPS Fix
4. DANAH Fix
5. KRAUZ Fix
6. BALBO Fix
7. MIDDS Fix
8. SLI Navaid
9. POPPR Fix
10. SMO Navaid
11. SILEX Fix
12. KBUR Airport